sensor_id;sensor_type;location;lat;lon;timestamp;P1;durP1;ratioP1;P2;durP2;ratioP2
1777;SDS011;886;50.082;8.222;2023-03-20T00:01:59;3.40;;;2.70;;
1777;SDS011;886;50.082;8.222;2023-03-20T00:04:27;4.60;;;2.73;;
1777;SDS011;886;50.082;8.222;2023-03-20T00:06:54;3.53;;;3.23;;
1777;SDS011;886;50.082;8.222;2023-03-20T00:09:22;3.60;;;3.10;;
1777;SDS011;886;50.082;8.222;2023-03-20T00:11:53;4.37;;;2.70;;
1777;SDS011;886;50.082;8.222;2023-03-20T00:14:21;8.40;;;2.80;;
1777;SDS011;886;50.082;8.222;2023-03-20T00:16:50;4.20;;;2.80;;
1777;SDS011;886;50.082;8.222;2023-03-20T00:19:18;3.40;;;2.70;;
1777;SDS011;886;50.082;8.222;2023-03-20T00:21:56;3.47;;;3.17;;
1777;SDS011;886;50.082;8.222;2023-03-20T00:24:24;6.20;;;2.77;;
1777;SDS011;886;50.082;8.222;2023-03-20T00:26:53;5.00;;;4.43;;
1777;SDS011;886;50.082;8.222;2023-03-20T00:29:21;3.50;;;3.20;;
1777;SDS011;886;50.082;8.222;2023-03-20T00:31:51;4.90;;;3.10;;
1777;SDS011;886;50.082;8.222;2023-03-20T00:34:20;5.40;;;3.10;;
1777;SDS011;886;50.082;8.222;2023-03-20T00:36:51;7.13;;;6.00;;
1777;SDS011;886;50.082;8.222;2023-03-20T00:39:19;3.60;;;3.40;;
1777;SDS011;886;50.082;8.222;2023-03-20T00:41:47;3.27;;;2.90;;
1777;SDS011;886;50.082;8.222;2023-03-20T00:44:20;2.97;;;2.77;;
1777;SDS011;886;50.082;8.222;2023-03-20T00:46:50;3.77;;;3.47;;
1777;SDS011;886;50.082;8.222;2023-03-20T00:49:22;10.50;;;6.10;;
1777;SDS011;886;50.082;8.222;2023-03-20T00:51:53;7.20;;;4.83;;
1777;SDS011;886;50.082;8.222;2023-03-20T00:54:20;4.13;;;3.73;;
1777;SDS011;886;50.082;8.222;2023-03-20T00:56:49;5.70;;;3.43;;
1777;SDS011;886;50.082;8.222;2023-03-20T00:59:26;3.43;;;3.00;;
1777;SDS011;886;50.082;8.222;2023-03-20T01:01:57;3.63;;;3.37;;
1777;SDS011;886;50.082;8.222;2023-03-20T01:04:27;4.90;;;3.50;;
1777;SDS011;886;50.082;8.222;2023-03-20T01:07:01;3.17;;;2.87;;
1777;SDS011;886;50.082;8.222;2023-03-20T01:09:31;5.13;;;3.00;;
1777;SDS011;886;50.082;8.222;2023-03-20T01:11:58;5.67;;;3.40;;
1777;SDS011;886;50.082;8.222;2023-03-20T01:14:28;4.03;;;3.30;;
1777;SDS011;886;50.082;8.222;2023-03-20T01:16:55;3.10;;;2.80;;
1777;SDS011;886;50.082;8.222;2023-03-20T01:19:23;3.30;;;3.00;;
1777;SDS011;886;50.082;8.222;2023-03-20T01:21:50;3.87;;;3.30;;
1777;SDS011;886;50.082;8.222;2023-03-20T01:24:17;3.90;;;3.60;;
1777;SDS011;886;50.082;8.222;2023-03-20T01:26:44;3.67;;;3.17;;
1777;SDS011;886;50.082;8.222;2023-03-20T01:29:15;4.27;;;3.30;;
1777;SDS011;886;50.082;8.222;2023-03-20T01:31:47;4.20;;;3.80;;
1777;SDS011;886;50.082;8.222;2023-03-20T01:34:15;4.00;;;3.57;;
1777;SDS011;886;50.082;8.222;2023-03-20T01:36:43;3.60;;;3.30;;
1777;SDS011;886;50.082;8.222;2023-03-20T01:39:14;3.00;;;2.80;;
1777;SDS011;886;50.082;8.222;2023-03-20T01:41:43;3.40;;;3.00;;
1777;SDS011;886;50.082;8.222;2023-03-20T01:44:15;4.37;;;3.83;;
1777;SDS011;886;50.082;8.222;2023-03-20T01:46:49;3.70;;;3.33;;
1777;SDS011;886;50.082;8.222;2023-03-20T01:52:41;3.10;;;2.90;;
1777;SDS011;886;50.082;8.222;2023-03-20T01:55:09;3.77;;;3.47;;
1777;SDS011;886;50.082;8.222;2023-03-20T01:57:36;3.40;;;3.20;;
1777;SDS011;886;50.082;8.222;2023-03-20T02:00:05;3.70;;;3.50;;
1777;SDS011;886;50.082;8.222;2023-03-20T02:02:39;3.70;;;3.40;;
1777;SDS011;886;50.082;8.222;2023-03-20T02:05:09;3.80;;;3.50;;
1777;SDS011;886;50.082;8.222;2023-03-20T02:07:39;4.07;;;3.57;;
1777;SDS011;886;50.082;8.222;2023-03-20T02:10:07;5.90;;;4.10;;
1777;SDS011;886;50.082;8.222;2023-03-20T02:12:38;5.53;;;3.70;;
1777;SDS011;886;50.082;8.222;2023-03-20T02:15:06;6.90;;;4.33;;
1777;SDS011;886;50.082;8.222;2023-03-20T02:17:34;4.60;;;4.10;;
1777;SDS011;886;50.082;8.222;2023-03-20T02:20:05;5.70;;;4.33;;
1777;SDS011;886;50.082;8.222;2023-03-20T02:22:50;3.87;;;3.57;;
1777;SDS011;886;50.082;8.222;2023-03-20T02:26:09;3.73;;;3.43;;
1777;SDS011;886;50.082;8.222;2023-03-20T02:29:08;4.67;;;3.80;;
1777;SDS011;886;50.082;8.222;2023-03-20T02:32:17;4.63;;;4.23;;
1777;SDS011;886;50.082;8.222;2023-03-20T02:35:46;4.20;;;3.90;;
1777;SDS011;886;50.082;8.222;2023-03-20T02:38:44;3.43;;;3.23;;
1777;SDS011;886;50.082;8.222;2023-03-20T02:41:42;4.47;;;4.07;;
1777;SDS011;886;50.082;8.222;2023-03-20T02:44:35;3.80;;;3.40;;
1777;SDS011;886;50.082;8.222;2023-03-20T02:47:12;4.40;;;3.67;;
1777;SDS011;886;50.082;8.222;2023-03-20T02:49:49;3.60;;;3.40;;
1777;SDS011;886;50.082;8.222;2023-03-20T02:52:24;6.27;;;4.17;;
1777;SDS011;886;50.082;8.222;2023-03-20T02:55:03;4.33;;;3.93;;
1777;SDS011;886;50.082;8.222;2023-03-20T02:57:43;3.60;;;3.30;;
1777;SDS011;886;50.082;8.222;2023-03-20T03:00:19;4.10;;;3.80;;
1777;SDS011;886;50.082;8.222;2023-03-20T03:02:56;6.40;;;4.10;;
1777;SDS011;886;50.082;8.222;2023-03-20T03:05:33;4.70;;;4.30;;
1777;SDS011;886;50.082;8.222;2023-03-20T03:08:06;4.13;;;3.83;;
1777;SDS011;886;50.082;8.222;2023-03-20T03:10:38;4.17;;;3.77;;
1777;SDS011;886;50.082;8.222;2023-03-20T03:13:12;6.90;;;4.40;;
1777;SDS011;886;50.082;8.222;2023-03-20T03:15:43;4.17;;;3.87;;
1777;SDS011;886;50.082;8.222;2023-03-20T03:18:16;4.10;;;3.80;;
1777;SDS011;886;50.082;8.222;2023-03-20T03:20:47;4.47;;;4.07;;
1777;SDS011;886;50.082;8.222;2023-03-20T03:23:22;3.90;;;3.53;;
1777;SDS011;886;50.082;8.222;2023-03-20T03:25:54;4.07;;;3.87;;
1777;SDS011;886;50.082;8.222;2023-03-20T03:28:27;5.90;;;5.30;;
1777;SDS011;886;50.082;8.222;2023-03-20T03:31:03;7.20;;;6.20;;
1777;SDS011;886;50.082;8.222;2023-03-20T03:33:33;4.50;;;4.10;;
1777;SDS011;886;50.082;8.222;2023-03-20T03:36:06;4.87;;;4.47;;
1777;SDS011;886;50.082;8.222;2023-03-20T03:38:41;4.90;;;4.50;;
1777;SDS011;886;50.082;8.222;2023-03-20T03:41:21;3.73;;;3.43;;
1777;SDS011;886;50.082;8.222;2023-03-20T03:43:57;6.27;;;5.67;;
1777;SDS011;886;50.082;8.222;2023-03-20T03:46:34;4.80;;;4.33;;
1777;SDS011;886;50.082;8.222;2023-03-20T03:49:11;5.37;;;4.97;;
1777;SDS011;886;50.082;8.222;2023-03-20T03:51:42;4.50;;;4.03;;
1777;SDS011;886;50.082;8.222;2023-03-20T03:54:14;3.87;;;3.57;;
1777;SDS011;886;50.082;8.222;2023-03-20T03:56:46;6.37;;;4.10;;
1777;SDS011;886;50.082;8.222;2023-03-20T03:59:16;3.80;;;3.50;;
1777;SDS011;886;50.082;8.222;2023-03-20T04:01:48;4.53;;;4.13;;
1777;SDS011;886;50.082;8.222;2023-03-20T04:04:17;7.37;;;4.40;;
1777;SDS011;886;50.082;8.222;2023-03-20T04:06:47;5.00;;;4.23;;
1777;SDS011;886;50.082;8.222;2023-03-20T04:09:15;4.23;;;3.83;;
1777;SDS011;886;50.082;8.222;2023-03-20T04:11:42;5.53;;;4.70;;
1777;SDS011;886;50.082;8.222;2023-03-20T04:14:14;5.03;;;4.63;;
1777;SDS011;886;50.082;8.222;2023-03-20T04:16:41;7.67;;;5.60;;
1777;SDS011;886;50.082;8.222;2023-03-20T04:19:08;5.73;;;5.00;;
1777;SDS011;886;50.082;8.222;2023-03-20T04:21:36;7.97;;;6.90;;
1777;SDS011;886;50.082;8.222;2023-03-20T04:24:03;11.17;;;6.73;;
1777;SDS011;886;50.082;8.222;2023-03-20T04:26:32;9.73;;;7.40;;
1777;SDS011;886;50.082;8.222;2023-03-20T04:29:01;12.33;;;9.20;;
1777;SDS011;886;50.082;8.222;2023-03-20T04:31:28;18.03;;;10.77;;
1777;SDS011;886;50.082;8.222;2023-03-20T04:33:56;26.53;;;14.83;;
1777;SDS011;886;50.082;8.222;2023-03-20T04:36:23;23.17;;;14.07;;
1777;SDS011;886;50.082;8.222;2023-03-20T04:38:51;29.17;;;15.70;;
1777;SDS011;886;50.082;8.222;2023-03-20T04:41:22;27.80;;;16.07;;
1777;SDS011;886;50.082;8.222;2023-03-20T04:43:49;26.00;;;14.60;;
1777;SDS011;886;50.082;8.222;2023-03-20T04:46:18;30.93;;;16.10;;
1777;SDS011;886;50.082;8.222;2023-03-20T04:48:45;26.23;;;14.93;;
1777;SDS011;886;50.082;8.222;2023-03-20T04:51:12;26.30;;;15.40;;
1777;SDS011;886;50.082;8.222;2023-03-20T04:53:39;30.97;;;14.73;;
1777;SDS011;886;50.082;8.222;2023-03-20T04:56:06;26.87;;;16.07;;
1777;SDS011;886;50.082;8.222;2023-03-20T04:58:34;31.40;;;15.97;;
1777;SDS011;886;50.082;8.222;2023-03-20T05:01:02;31.50;;;16.53;;
1777;SDS011;886;50.082;8.222;2023-03-20T05:03:31;27.43;;;15.10;;
1777;SDS011;886;50.082;8.222;2023-03-20T05:05:59;31.87;;;17.03;;
1777;SDS011;886;50.082;8.222;2023-03-20T05:08:26;30.00;;;15.93;;
1777;SDS011;886;50.082;8.222;2023-03-20T05:10:53;27.87;;;15.03;;
1777;SDS011;886;50.082;8.222;2023-03-20T05:13:21;33.17;;;16.00;;
1777;SDS011;886;50.082;8.222;2023-03-20T05:15:48;36.20;;;16.87;;
1777;SDS011;886;50.082;8.222;2023-03-20T05:18:15;31.40;;;15.90;;
1777;SDS011;886;50.082;8.222;2023-03-20T05:20:44;31.43;;;15.50;;
1777;SDS011;886;50.082;8.222;2023-03-20T05:23:11;29.67;;;15.93;;
1777;SDS011;886;50.082;8.222;2023-03-20T05:25:38;27.37;;;15.57;;
1777;SDS011;886;50.082;8.222;2023-03-20T05:28:06;26.03;;;15.10;;
1777;SDS011;886;50.082;8.222;2023-03-20T05:30:33;25.00;;;15.80;;
1777;SDS011;886;50.082;8.222;2023-03-20T05:33:00;31.13;;;15.97;;
1777;SDS011;886;50.082;8.222;2023-03-20T05:35:28;25.67;;;15.20;;
1777;SDS011;886;50.082;8.222;2023-03-20T05:37:57;27.00;;;14.70;;
1777;SDS011;886;50.082;8.222;2023-03-20T05:40:24;24.33;;;14.10;;
1777;SDS011;886;50.082;8.222;2023-03-20T05:42:51;22.53;;;13.60;;
1777;SDS011;886;50.082;8.222;2023-03-20T05:45:19;22.00;;;13.53;;
1777;SDS011;886;50.082;8.222;2023-03-20T05:47:46;27.37;;;15.03;;
1777;SDS011;886;50.082;8.222;2023-03-20T05:50:13;25.37;;;13.80;;
1777;SDS011;886;50.082;8.222;2023-03-20T05:52:40;31.63;;;16.30;;
1777;SDS011;886;50.082;8.222;2023-03-20T05:55:08;30.43;;;16.87;;
1777;SDS011;886;50.082;8.222;2023-03-20T05:57:35;28.73;;;17.93;;
1777;SDS011;886;50.082;8.222;2023-03-20T06:00:03;30.50;;;18.27;;
1777;SDS011;886;50.082;8.222;2023-03-20T06:02:31;28.40;;;15.90;;
1777;SDS011;886;50.082;8.222;2023-03-20T06:04:58;32.57;;;18.30;;
1777;SDS011;886;50.082;8.222;2023-03-20T06:07:25;36.13;;;18.67;;
1777;SDS011;886;50.082;8.222;2023-03-20T06:09:53;32.00;;;17.23;;
1777;SDS011;886;50.082;8.222;2023-03-20T06:12:21;31.80;;;17.70;;
1777;SDS011;886;50.082;8.222;2023-03-20T06:14:49;32.30;;;17.13;;
1777;SDS011;886;50.082;8.222;2023-03-20T06:17:16;30.60;;;17.67;;
1777;SDS011;886;50.082;8.222;2023-03-20T06:19:43;27.50;;;16.53;;
1777;SDS011;886;50.082;8.222;2023-03-20T06:22:10;27.07;;;15.57;;
1777;SDS011;886;50.082;8.222;2023-03-20T06:24:37;32.30;;;16.50;;
1777;SDS011;886;50.082;8.222;2023-03-20T06:27:05;27.70;;;16.13;;
1777;SDS011;886;50.082;8.222;2023-03-20T06:29:33;31.13;;;15.67;;
1777;SDS011;886;50.082;8.222;2023-03-20T06:32:01;27.43;;;16.20;;
1777;SDS011;886;50.082;8.222;2023-03-20T06:34:29;27.40;;;15.87;;
1777;SDS011;886;50.082;8.222;2023-03-20T06:36:56;36.37;;;19.30;;
1777;SDS011;886;50.082;8.222;2023-03-20T06:39:23;33.37;;;17.30;;
1777;SDS011;886;50.082;8.222;2023-03-20T06:41:50;29.20;;;15.87;;
1777;SDS011;886;50.082;8.222;2023-03-20T06:44:17;27.50;;;17.20;;
1777;SDS011;886;50.082;8.222;2023-03-20T06:46:46;31.83;;;17.27;;
1777;SDS011;886;50.082;8.222;2023-03-20T06:49:13;37.77;;;17.73;;
1777;SDS011;886;50.082;8.222;2023-03-20T06:51:40;35.97;;;17.90;;
1777;SDS011;886;50.082;8.222;2023-03-20T06:54:07;35.37;;;18.77;;
1777;SDS011;886;50.082;8.222;2023-03-20T06:56:34;35.60;;;19.10;;
1777;SDS011;886;50.082;8.222;2023-03-20T06:59:01;31.93;;;17.10;;
1777;SDS011;886;50.082;8.222;2023-03-20T07:01:28;29.27;;;17.63;;
1777;SDS011;886;50.082;8.222;2023-03-20T07:03:57;30.47;;;17.60;;
1777;SDS011;886;50.082;8.222;2023-03-20T07:06:26;36.97;;;19.13;;
1777;SDS011;886;50.082;8.222;2023-03-20T07:08:53;33.63;;;17.80;;
1777;SDS011;886;50.082;8.222;2023-03-20T07:11:20;30.83;;;18.53;;
1777;SDS011;886;50.082;8.222;2023-03-20T07:13:47;31.73;;;18.67;;
1777;SDS011;886;50.082;8.222;2023-03-20T07:16:31;28.43;;;16.63;;
1777;SDS011;886;50.082;8.222;2023-03-20T07:19:00;39.73;;;19.00;;
1777;SDS011;886;50.082;8.222;2023-03-20T07:21:27;30.80;;;17.43;;
1777;SDS011;886;50.082;8.222;2023-03-20T07:23:55;31.93;;;20.03;;
1777;SDS011;886;50.082;8.222;2023-03-20T07:26:23;32.53;;;17.70;;
1777;SDS011;886;50.082;8.222;2023-03-20T07:28:50;33.83;;;19.77;;
1777;SDS011;886;50.082;8.222;2023-03-20T07:31:18;31.37;;;16.87;;
1777;SDS011;886;50.082;8.222;2023-03-20T07:33:48;34.37;;;19.03;;
1777;SDS011;886;50.082;8.222;2023-03-20T07:36:16;39.23;;;18.97;;
1777;SDS011;886;50.082;8.222;2023-03-20T07:38:44;27.23;;;17.57;;
1777;SDS011;886;50.082;8.222;2023-03-20T07:41:11;34.90;;;19.97;;
1777;SDS011;886;50.082;8.222;2023-03-20T07:43:38;33.60;;;18.33;;
1777;SDS011;886;50.082;8.222;2023-03-20T07:46:06;27.70;;;16.33;;
1777;SDS011;886;50.082;8.222;2023-03-20T07:48:52;31.97;;;18.20;;
1777;SDS011;886;50.082;8.222;2023-03-20T07:51:20;32.33;;;16.30;;
1777;SDS011;886;50.082;8.222;2023-03-20T07:53:47;26.97;;;15.13;;
1777;SDS011;886;50.082;8.222;2023-03-20T07:56:14;31.10;;;16.10;;
1777;SDS011;886;50.082;8.222;2023-03-20T07:58:41;26.23;;;15.93;;
1777;SDS011;886;50.082;8.222;2023-03-20T08:01:08;28.23;;;16.77;;
1777;SDS011;886;50.082;8.222;2023-03-20T08:03:35;29.70;;;18.17;;
1777;SDS011;886;50.082;8.222;2023-03-20T08:06:04;30.40;;;16.77;;
1777;SDS011;886;50.082;8.222;2023-03-20T08:08:36;27.87;;;16.23;;
1777;SDS011;886;50.082;8.222;2023-03-20T08:11:03;31.23;;;17.30;;
1777;SDS011;886;50.082;8.222;2023-03-20T08:13:30;40.20;;;18.53;;
1777;SDS011;886;50.082;8.222;2023-03-20T08:15:57;29.90;;;17.23;;
1777;SDS011;886;50.082;8.222;2023-03-20T08:18:26;38.80;;;18.67;;
1777;SDS011;886;50.082;8.222;2023-03-20T08:20:53;32.93;;;17.73;;
1777;SDS011;886;50.082;8.222;2023-03-20T08:23:21;28.63;;;16.40;;
1777;SDS011;886;50.082;8.222;2023-03-20T08:25:49;36.07;;;18.80;;
1777;SDS011;886;50.082;8.222;2023-03-20T08:28:17;27.00;;;15.30;;
1777;SDS011;886;50.082;8.222;2023-03-20T08:30:46;30.50;;;17.20;;
1777;SDS011;886;50.082;8.222;2023-03-20T08:33:14;27.90;;;17.60;;
1777;SDS011;886;50.082;8.222;2023-03-20T08:35:42;33.47;;;19.13;;
1777;SDS011;886;50.082;8.222;2023-03-20T08:38:10;36.33;;;20.33;;
1777;SDS011;886;50.082;8.222;2023-03-20T08:40:39;33.00;;;18.80;;
1777;SDS011;886;50.082;8.222;2023-03-20T08:43:08;33.90;;;18.37;;
1777;SDS011;886;50.082;8.222;2023-03-20T08:45:35;35.00;;;18.83;;
1777;SDS011;886;50.082;8.222;2023-03-20T08:48:03;27.70;;;17.73;;
1777;SDS011;886;50.082;8.222;2023-03-20T08:50:30;31.27;;;18.60;;
1777;SDS011;886;50.082;8.222;2023-03-20T08:52:58;29.07;;;17.60;;
1777;SDS011;886;50.082;8.222;2023-03-20T08:55:26;30.60;;;18.53;;
1777;SDS011;886;50.082;8.222;2023-03-20T08:57:53;31.73;;;16.50;;
1777;SDS011;886;50.082;8.222;2023-03-20T09:00:24;27.10;;;16.63;;
1777;SDS011;886;50.082;8.222;2023-03-20T09:02:53;22.30;;;15.07;;
1777;SDS011;886;50.082;8.222;2023-03-20T09:05:20;21.80;;;14.37;;
1777;SDS011;886;50.082;8.222;2023-03-20T09:07:47;22.60;;;14.97;;
1777;SDS011;886;50.082;8.222;2023-03-20T09:10:15;25.63;;;15.27;;
1777;SDS011;886;50.082;8.222;2023-03-20T09:12:42;33.80;;;18.40;;
1777;SDS011;886;50.082;8.222;2023-03-20T09:15:09;22.50;;;14.50;;
1777;SDS011;886;50.082;8.222;2023-03-20T09:17:38;21.37;;;13.57;;
1777;SDS011;886;50.082;8.222;2023-03-20T09:20:06;48.90;;;36.70;;
1777;SDS011;886;50.082;8.222;2023-03-20T09:22:34;48.23;;;34.80;;
1777;SDS011;886;50.082;8.222;2023-03-20T09:25:01;15.77;;;10.40;;
1777;SDS011;886;50.082;8.222;2023-03-20T09:27:29;14.63;;;11.00;;
1777;SDS011;886;50.082;8.222;2023-03-20T09:29:56;17.97;;;11.90;;
1777;SDS011;886;50.082;8.222;2023-03-20T09:32:23;16.27;;;12.00;;
1777;SDS011;886;50.082;8.222;2023-03-20T09:34:51;14.67;;;11.13;;
1777;SDS011;886;50.082;8.222;2023-03-20T09:37:18;19.07;;;11.50;;
1777;SDS011;886;50.082;8.222;2023-03-20T09:39:45;15.93;;;10.53;;
1777;SDS011;886;50.082;8.222;2023-03-20T09:42:16;14.07;;;10.83;;
1777;SDS011;886;50.082;8.222;2023-03-20T09:45:00;21.00;;;13.00;;
1777;SDS011;886;50.082;8.222;2023-03-20T09:47:36;18.27;;;12.33;;
1777;SDS011;886;50.082;8.222;2023-03-20T09:50:14;14.67;;;11.60;;
1777;SDS011;886;50.082;8.222;2023-03-20T09:52:55;17.60;;;11.67;;
1777;SDS011;886;50.082;8.222;2023-03-20T09:55:29;21.03;;;12.83;;
1777;SDS011;886;50.082;8.222;2023-03-20T09:58:02;14.87;;;11.80;;
1777;SDS011;886;50.082;8.222;2023-03-20T10:00:37;14.80;;;11.77;;
1777;SDS011;886;50.082;8.222;2023-03-20T10:03:11;12.47;;;10.20;;
1777;SDS011;886;50.082;8.222;2023-03-20T10:05:47;12.70;;;8.20;;
1777;SDS011;886;50.082;8.222;2023-03-20T10:08:22;10.20;;;7.90;;
1777;SDS011;886;50.082;8.222;2023-03-20T10:10:56;7.37;;;6.67;;
1777;SDS011;886;50.082;8.222;2023-03-20T10:13:47;7.70;;;6.10;;
1777;SDS011;886;50.082;8.222;2023-03-20T10:16:26;9.33;;;6.80;;
1777;SDS011;886;50.082;8.222;2023-03-20T10:19:11;8.77;;;6.50;;
1777;SDS011;886;50.082;8.222;2023-03-20T10:21:50;9.10;;;6.33;;
1777;SDS011;886;50.082;8.222;2023-03-20T10:24:24;7.50;;;6.43;;
1777;SDS011;886;50.082;8.222;2023-03-20T10:26:54;11.37;;;6.70;;
1777;SDS011;886;50.082;8.222;2023-03-20T10:29:30;10.63;;;7.40;;
1777;SDS011;886;50.082;8.222;2023-03-20T10:32:07;9.83;;;7.30;;
1777;SDS011;886;50.082;8.222;2023-03-20T10:34:47;10.00;;;7.10;;
1777;SDS011;886;50.082;8.222;2023-03-20T10:37:28;8.33;;;7.53;;
1777;SDS011;886;50.082;8.222;2023-03-20T10:40:14;10.83;;;8.83;;
1777;SDS011;886;50.082;8.222;2023-03-20T10:42:54;8.40;;;7.23;;
1777;SDS011;886;50.082;8.222;2023-03-20T10:45:27;10.43;;;8.07;;
1777;SDS011;886;50.082;8.222;2023-03-20T10:48:03;8.17;;;7.37;;
1777;SDS011;886;50.082;8.222;2023-03-20T10:50:40;8.63;;;7.70;;
1777;SDS011;886;50.082;8.222;2023-03-20T10:53:19;7.07;;;6.07;;
1777;SDS011;886;50.082;8.222;2023-03-20T10:55:53;8.57;;;6.37;;
1777;SDS011;886;50.082;8.222;2023-03-20T10:58:24;6.17;;;5.53;;
1777;SDS011;886;50.082;8.222;2023-03-20T11:00:54;6.67;;;6.00;;
1777;SDS011;886;50.082;8.222;2023-03-20T11:03:23;8.40;;;6.00;;
1777;SDS011;886;50.082;8.222;2023-03-20T11:05:55;7.43;;;6.63;;
1777;SDS011;886;50.082;8.222;2023-03-20T11:08:38;8.63;;;6.27;;
1777;SDS011;886;50.082;8.222;2023-03-20T11:11:07;7.87;;;6.80;;
1777;SDS011;886;50.082;8.222;2023-03-20T11:13:35;5.67;;;5.13;;
1777;SDS011;886;50.082;8.222;2023-03-20T11:16:08;6.83;;;5.37;;
1777;SDS011;886;50.082;8.222;2023-03-20T11:18:44;6.67;;;5.00;;
1777;SDS011;886;50.082;8.222;2023-03-20T11:21:15;6.53;;;4.93;;
1777;SDS011;886;50.082;8.222;2023-03-20T11:23:47;4.63;;;4.30;;
1777;SDS011;886;50.082;8.222;2023-03-20T11:26:16;3.70;;;3.40;;
1777;SDS011;886;50.082;8.222;2023-03-20T11:28:47;3.70;;;3.40;;
1777;SDS011;886;50.082;8.222;2023-03-20T11:31:18;4.13;;;3.10;;
1777;SDS011;886;50.082;8.222;2023-03-20T11:33:52;4.07;;;3.07;;
1777;SDS011;886;50.082;8.222;2023-03-20T11:36:36;3.40;;;3.10;;
1777;SDS011;886;50.082;8.222;2023-03-20T11:39:11;2.90;;;2.70;;
1777;SDS011;886;50.082;8.222;2023-03-20T11:41:41;24.17;;;19.93;;
1777;SDS011;886;50.082;8.222;2023-03-20T11:44:22;13.27;;;11.87;;
1777;SDS011;886;50.082;8.222;2023-03-20T11:46:54;2.90;;;2.70;;
1777;SDS011;886;50.082;8.222;2023-03-20T11:49:25;2.70;;;2.50;;
1777;SDS011;886;50.082;8.222;2023-03-20T11:51:55;2.37;;;2.17;;
1777;SDS011;886;50.082;8.222;2023-03-20T11:54:27;2.40;;;2.20;;
1777;SDS011;886;50.082;8.222;2023-03-20T11:56:56;2.27;;;2.17;;
1777;SDS011;886;50.082;8.222;2023-03-20T11:59:25;2.20;;;2.00;;
1777;SDS011;886;50.082;8.222;2023-03-20T12:01:58;3.93;;;2.00;;
1777;SDS011;886;50.082;8.222;2023-03-20T12:04:27;2.10;;;1.90;;
1777;SDS011;886;50.082;8.222;2023-03-20T12:06:56;2.07;;;1.50;;
1777;SDS011;886;50.082;8.222;2023-03-20T12:09:35;2.00;;;1.80;;
1777;SDS011;886;50.082;8.222;2023-03-20T12:12:08;3.33;;;1.87;;
1777;SDS011;886;50.082;8.222;2023-03-20T12:14:44;3.00;;;2.10;;
1777;SDS011;886;50.082;8.222;2023-03-20T12:17:30;2.97;;;2.20;;
1777;SDS011;886;50.082;8.222;2023-03-20T12:20:10;2.60;;;1.60;;
1777;SDS011;886;50.082;8.222;2023-03-20T12:22:49;2.30;;;2.10;;
1777;SDS011;886;50.082;8.222;2023-03-20T12:25:25;2.30;;;2.10;;
1777;SDS011;886;50.082;8.222;2023-03-20T12:27:57;2.20;;;2.10;;
1777;SDS011;886;50.082;8.222;2023-03-20T12:30:31;2.60;;;2.10;;
1777;SDS011;886;50.082;8.222;2023-03-20T12:33:16;1.93;;;1.70;;
1777;SDS011;886;50.082;8.222;2023-03-20T12:35:55;1.97;;;1.87;;
1777;SDS011;886;50.082;8.222;2023-03-20T12:38:26;2.63;;;1.90;;
1777;SDS011;886;50.082;8.222;2023-03-20T12:40:58;68.77;;;44.43;;
1777;SDS011;886;50.082;8.222;2023-03-20T12:43:37;10.10;;;7.30;;
1777;SDS011;886;50.082;8.222;2023-03-20T12:46:25;3.03;;;2.70;;
1777;SDS011;886;50.082;8.222;2023-03-20T12:49:00;2.50;;;2.00;;
1777;SDS011;886;50.082;8.222;2023-03-20T12:51:39;3.10;;;2.47;;
1777;SDS011;886;50.082;8.222;2023-03-20T12:54:21;3.10;;;2.33;;
1777;SDS011;886;50.082;8.222;2023-03-20T12:57:06;2.70;;;2.50;;
1777;SDS011;886;50.082;8.222;2023-03-20T12:59:48;2.50;;;2.30;;
1777;SDS011;886;50.082;8.222;2023-03-20T13:02:33;2.60;;;2.40;;
1777;SDS011;886;50.082;8.222;2023-03-20T13:05:11;3.13;;;2.93;;
1777;SDS011;886;50.082;8.222;2023-03-20T13:07:59;2.73;;;2.37;;
1777;SDS011;886;50.082;8.222;2023-03-20T13:10:39;3.10;;;2.50;;
1777;SDS011;886;50.082;8.222;2023-03-20T13:13:22;2.70;;;2.50;;
1777;SDS011;886;50.082;8.222;2023-03-20T13:16:02;2.40;;;2.20;;
1777;SDS011;886;50.082;8.222;2023-03-20T13:18:40;3.80;;;2.63;;
1777;SDS011;886;50.082;8.222;2023-03-20T13:21:18;3.13;;;2.63;;
1777;SDS011;886;50.082;8.222;2023-03-20T13:23:55;4.77;;;2.30;;
1777;SDS011;886;50.082;8.222;2023-03-20T13:26:40;2.93;;;2.47;;
1777;SDS011;886;50.082;8.222;2023-03-20T13:29:17;3.40;;;2.53;;
1777;SDS011;886;50.082;8.222;2023-03-20T13:31:56;2.67;;;2.47;;
1777;SDS011;886;50.082;8.222;2023-03-20T13:34:36;2.53;;;2.33;;
1777;SDS011;886;50.082;8.222;2023-03-20T13:37:20;4.37;;;3.40;;
1777;SDS011;886;50.082;8.222;2023-03-20T13:39:58;3.97;;;2.93;;
1777;SDS011;886;50.082;8.222;2023-03-20T13:42:32;3.23;;;3.03;;
1777;SDS011;886;50.082;8.222;2023-03-20T13:45:06;3.77;;;3.40;;
1777;SDS011;886;50.082;8.222;2023-03-20T13:47:47;3.30;;;3.10;;
1777;SDS011;886;50.082;8.222;2023-03-20T13:50:23;4.23;;;3.53;;
1777;SDS011;886;50.082;8.222;2023-03-20T13:53:02;4.50;;;4.10;;
1777;SDS011;886;50.082;8.222;2023-03-20T13:55:41;5.20;;;3.70;;
1777;SDS011;886;50.082;8.222;2023-03-20T14:01:17;4.20;;;3.80;;
1777;SDS011;886;50.082;8.222;2023-03-20T14:03:52;4.37;;;3.97;;
1777;SDS011;886;50.082;8.222;2023-03-20T14:09:26;4.97;;;3.40;;
1777;SDS011;886;50.082;8.222;2023-03-20T14:12:01;12.80;;;9.33;;
1777;SDS011;886;50.082;8.222;2023-03-20T14:14:32;4.67;;;4.27;;
1777;SDS011;886;50.082;8.222;2023-03-20T14:17:12;4.00;;;3.43;;
1777;SDS011;886;50.082;8.222;2023-03-20T14:19:44;3.13;;;2.93;;
1777;SDS011;886;50.082;8.222;2023-03-20T14:22:19;3.40;;;3.10;;
1777;SDS011;886;50.082;8.222;2023-03-20T14:25:06;5.93;;;2.93;;
1777;SDS011;886;50.082;8.222;2023-03-20T14:27:52;5.83;;;3.07;;
1777;SDS011;886;50.082;8.222;2023-03-20T14:30:36;6.53;;;2.60;;
1777;SDS011;886;50.082;8.222;2023-03-20T14:33:21;3.07;;;2.43;;
1777;SDS011;886;50.082;8.222;2023-03-20T14:38:48;3.80;;;2.60;;
1777;SDS011;886;50.082;8.222;2023-03-20T14:41:25;4.33;;;2.40;;
1777;SDS011;886;50.082;8.222;2023-03-20T14:44:05;7.47;;;4.30;;
1777;SDS011;886;50.082;8.222;2023-03-20T14:46:49;3.87;;;2.10;;
1777;SDS011;886;50.082;8.222;2023-03-20T14:49:29;3.40;;;1.97;;
1777;SDS011;886;50.082;8.222;2023-03-20T14:52:17;2.90;;;2.33;;
1777;SDS011;886;50.082;8.222;2023-03-20T14:55:12;4.80;;;2.20;;
1777;SDS011;886;50.082;8.222;2023-03-20T14:58:01;1.97;;;1.87;;
1777;SDS011;886;50.082;8.222;2023-03-20T15:00:32;2.30;;;2.17;;
1777;SDS011;886;50.082;8.222;2023-03-20T15:03:10;2.30;;;2.10;;
1777;SDS011;886;50.082;8.222;2023-03-20T15:05:42;2.20;;;2.00;;
1777;SDS011;886;50.082;8.222;2023-03-20T15:08:13;2.37;;;2.17;;
1777;SDS011;886;50.082;8.222;2023-03-20T15:10:49;2.47;;;2.27;;
1777;SDS011;886;50.082;8.222;2023-03-20T15:13:20;3.50;;;2.30;;
1777;SDS011;886;50.082;8.222;2023-03-20T15:15:51;2.33;;;2.07;;
1777;SDS011;886;50.082;8.222;2023-03-20T15:18:20;2.93;;;1.93;;
1777;SDS011;886;50.082;8.222;2023-03-20T15:20:51;5.27;;;2.10;;
1777;SDS011;886;50.082;8.222;2023-03-20T15:23:20;2.67;;;2.27;;
1777;SDS011;886;50.082;8.222;2023-03-20T15:25:48;3.90;;;2.13;;
1777;SDS011;886;50.082;8.222;2023-03-20T15:28:18;2.40;;;2.20;;
1777;SDS011;886;50.082;8.222;2023-03-20T15:30:48;4.07;;;2.10;;
1777;SDS011;886;50.082;8.222;2023-03-20T15:33:21;2.53;;;2.33;;
1777;SDS011;886;50.082;8.222;2023-03-20T15:35:54;3.10;;;2.60;;
1777;SDS011;886;50.082;8.222;2023-03-20T15:38:22;2.37;;;2.17;;
1777;SDS011;886;50.082;8.222;2023-03-20T15:40:54;2.77;;;2.43;;
1777;SDS011;886;50.082;8.222;2023-03-20T15:43:22;3.20;;;2.63;;
1777;SDS011;886;50.082;8.222;2023-03-20T15:45:51;2.13;;;2.03;;
1777;SDS011;886;50.082;8.222;2023-03-20T15:48:31;3.17;;;2.87;;
1777;SDS011;886;50.082;8.222;2023-03-20T15:51:01;3.63;;;3.33;;
1777;SDS011;886;50.082;8.222;2023-03-20T15:53:32;6.97;;;2.60;;
1777;SDS011;886;50.082;8.222;2023-03-20T15:56:05;2.90;;;2.67;;
1777;SDS011;886;50.082;8.222;2023-03-20T15:58:44;18.00;;;14.10;;
1777;SDS011;886;50.082;8.222;2023-03-20T16:01:14;6.40;;;4.70;;
1777;SDS011;886;50.082;8.222;2023-03-20T16:03:44;3.93;;;2.60;;
1777;SDS011;886;50.082;8.222;2023-03-20T16:06:16;4.17;;;2.63;;